HZV weather

Hazyview Airport
Hazyview, Mpumalanga, South Africa

Public forecast

Using degrees Celsius for public forecast. Weather courtesy of forecast.io.

METAR (pilot weather report)

Closest report is Kruger Mpumalanga International Airport, 20.1 nm (37.1 km) S. Retrieved 2019/05/25 05:00 UTC (31 minutes ago):

FAKN 250500Z 28001KT 9999 BKN015 14/12 Q1029 NOSIG

TAF (pilot weather forecast)

Forecast is more than 12 hours old.

Closest forecast is Kruger Mpumalanga International Airport, 20.1 nm (37.1 km) S. Retrieved 2017/06/05 04:55 UTC (2 years ago):

TAF FAKN 050300Z 0504/0515 25006KT CAVOK BECMG 0511/0513 13005KT SCT030 BECMG 0513/0515 07005KT TX22/0513ZTN08/0504Z